createdAt,value
2023-04-26T01:30:12.768Z,5.10
2023-04-26T01:32:42.932Z,5.00
2023-04-26T01:35:12.237Z,4.96
2023-04-26T01:37:42.465Z,4.90
2023-04-26T01:40:12.553Z,4.88
2023-04-26T01:42:42.978Z,4.87
2023-04-26T01:45:12.785Z,4.92
2023-04-26T01:47:41.697Z,4.90
2023-04-26T01:50:11.578Z,4.83
2023-04-26T01:52:42.469Z,4.84
2023-04-26T01:55:12.096Z,4.79
2023-04-26T02:57:42.311Z,3.27
2023-04-26T03:00:15.845Z,5.11
2023-04-26T03:03:03.163Z,5.00
2023-04-26T03:05:33.731Z,4.94
2023-04-26T03:08:02.998Z,4.89
2023-04-26T03:10:31.873Z,4.81
2023-04-26T03:13:10.510Z,4.81
2023-04-26T03:15:41.502Z,4.89
2023-04-26T03:18:10.855Z,4.86
2023-04-26T03:20:43.775Z,4.92
2023-04-26T03:23:12.993Z,4.92
2023-04-26T03:25:41.997Z,4.91
2023-04-26T03:28:13.703Z,4.88
2023-04-26T03:30:42.402Z,4.86
2023-04-26T03:33:12.358Z,4.83
2023-04-26T03:35:43.466Z,4.85
2023-04-26T03:38:13.705Z,4.96
2023-04-26T03:40:47.362Z,4.76
2023-04-26T03:43:34.885Z,4.89
2023-04-26T03:46:09.048Z,4.98
2023-04-26T03:48:37.708Z,5.10
2023-04-26T03:51:11.945Z,5.11
2023-04-26T03:53:41.499Z,5.15
2023-04-26T03:56:13.260Z,5.33
2023-04-26T03:58:55.850Z,5.29
2023-04-26T04:01:34.145Z,5.32
2023-04-26T04:05:18.563Z,5.40
2023-04-26T04:07:46.272Z,5.29
2023-04-26T04:10:23.247Z,5.24
2023-04-26T04:13:16.938Z,5.43
2023-04-26T04:15:58.060Z,5.26
2023-04-26T04:19:21.261Z,5.32
2023-04-26T04:21:55.507Z,5.32
2023-04-26T04:24:37.873Z,5.34
2023-04-26T04:27:13.116Z,5.37
2023-04-26T04:29:48.788Z,5.43
2023-04-26T04:36:22.400Z,5.36
2023-04-26T04:38:57.700Z,5.26
2023-04-26T04:41:40.531Z,5.43
2023-04-26T04:44:12.826Z,5.25
2023-04-26T04:46:44.066Z,5.31
2023-04-26T04:49:13.974Z,5.36
2023-04-26T04:51:55.830Z,5.48
2023-04-26T04:54:30.974Z,5.48
2023-04-26T04:57:11.368Z,5.45
2023-04-26T04:59:42.719Z,5.54
2023-04-26T05:02:22.525Z,5.47
2023-04-26T05:04:54.121Z,5.49
2023-04-26T05:07:29.234Z,5.60
2023-04-26T05:10:15.881Z,5.57
2023-04-26T05:12:51.174Z,5.77
2023-04-26T05:15:30.242Z,5.76
2023-04-26T05:18:04.142Z,5.73
2023-04-26T05:20:40.118Z,5.79
2023-04-26T05:23:52.901Z,5.79
2023-04-26T05:26:30.659Z,5.64
2023-04-26T05:29:11.574Z,5.79
2023-04-26T05:31:51.756Z,5.83
2023-04-26T05:34:33.000Z,5.93
2023-04-26T05:37:03.866Z,6.01
2023-04-26T05:39:51.573Z,6.30
2023-04-26T05:42:28.878Z,6.36
2023-04-26T05:44:59.916Z,6.41
2023-04-26T05:47:41.110Z,6.52
2023-04-26T05:50:20.765Z,6.52
2023-04-26T05:56:31.501Z,6.85
2023-04-26T05:59:25.352Z,7.11
2023-04-26T06:02:54.362Z,7.37
2023-04-26T06:05:57.135Z,7.51
2023-04-26T06:08:53.889Z,7.66
2023-04-26T06:11:44.563Z,7.88
2023-04-26T06:14:28.837Z,7.93
2023-04-26T06:17:10.747Z,8.08
2023-04-26T06:22:33.514Z,8.24
2023-04-26T06:25:10.545Z,8.28
2023-04-26T06:27:41.067Z,8.41
2023-04-26T06:30:17.996Z,8.62
2023-04-26T06:33:12.858Z,8.63
2023-04-26T06:35:47.064Z,8.80
2023-04-26T06:38:20.282Z,8.84
2023-04-26T06:40:49.216Z,9.00
2023-04-26T06:43:20.209Z,9.02
2023-04-26T06:45:49.974Z,9.09
2023-04-26T06:48:18.894Z,9.20
2023-04-26T06:50:47.319Z,9.29
2023-04-26T06:53:16.578Z,9.37
2023-04-26T06:56:01.595Z,9.34
2023-04-26T06:58:37.553Z,9.49
2023-04-26T07:01:08.639Z,9.64
2023-04-26T07:03:42.822Z,9.63
2023-04-26T07:06:14.367Z,9.70
2023-04-26T07:08:43.282Z,9.79
2023-04-26T07:11:12.485Z,9.81
2023-04-26T07:13:44.782Z,9.92
